createdAt,value
2023-05-16T00:00:42.992Z,18.67
2023-05-16T00:01:44.338Z,18.93
2023-05-16T00:02:46.388Z,20.40
2023-05-16T00:03:48.303Z,19.47
2023-05-16T00:04:49.821Z,20.60
2023-05-16T00:05:51.962Z,23.03
2023-05-16T00:06:53.266Z,24.87
2023-05-16T00:07:54.593Z,25.77
2023-05-16T00:08:56.053Z,25.83
2023-05-16T00:09:57.534Z,28.53
2023-05-16T00:10:58.943Z,29.77
2023-05-16T00:12:00.404Z,31.23
2023-05-16T00:13:01.960Z,30.10
2023-05-16T00:14:03.901Z,30.30
2023-05-16T00:15:08.725Z,31.27
2023-05-16T00:16:14.771Z,32.90
2023-05-16T00:17:17.618Z,34.17
2023-05-16T00:18:19.475Z,34.13
2023-05-16T00:19:20.923Z,32.53
2023-05-16T00:20:24.751Z,35.03
2023-05-16T00:21:26.503Z,33.53
2023-05-16T00:22:27.900Z,35.27
2023-05-16T00:23:29.353Z,33.33
2023-05-16T00:24:30.947Z,34.67
2023-05-16T00:25:32.393Z,35.63
2023-05-16T00:26:33.770Z,36.13
2023-05-16T00:27:35.923Z,36.97
2023-05-16T00:28:38.567Z,36.97
2023-05-16T00:29:39.969Z,37.10
2023-05-16T00:30:41.554Z,35.23
2023-05-16T00:31:43.049Z,35.17
2023-05-16T00:32:45.925Z,36.27
2023-05-16T00:33:47.303Z,36.50
2023-05-16T00:34:48.662Z,36.53
2023-05-16T00:35:50.357Z,36.97
2023-05-16T00:36:53.258Z,37.07
2023-05-16T00:37:54.869Z,36.97
2023-05-16T00:38:56.415Z,35.63
2023-05-16T00:39:57.984Z,34.63
2023-05-16T00:40:59.390Z,33.23
2023-05-16T00:42:01.318Z,34.73
2023-05-16T00:43:02.676Z,34.37
2023-05-16T00:44:04.064Z,35.17
2023-05-16T00:45:06.316Z,34.60
2023-05-16T00:46:07.704Z,36.90
2023-05-16T00:47:10.174Z,36.70
2023-05-16T00:48:12.533Z,36.37
2023-05-16T00:49:14.184Z,38.17
2023-05-16T00:50:15.931Z,36.50
2023-05-16T00:51:18.253Z,35.40
2023-05-16T00:52:19.774Z,36.20
2023-05-16T00:53:21.180Z,36.57
2023-05-16T00:54:23.190Z,36.33
2023-05-16T00:55:24.876Z,36.53
2023-05-16T00:56:26.272Z,34.80
2023-05-16T00:57:28.486Z,36.20
2023-05-16T00:58:30.641Z,36.40
2023-05-16T00:59:32.393Z,34.50
2023-05-16T01:00:34.097Z,35.60
2023-05-16T01:01:36.833Z,35.83
2023-05-16T01:02:38.560Z,37.33
2023-05-16T01:03:40.714Z,35.70
2023-05-16T01:04:43.289Z,36.10
2023-05-16T01:05:47.668Z,37.03
2023-05-16T01:06:49.011Z,36.83
2023-05-16T01:07:50.476Z,37.90
2023-05-16T01:08:51.996Z,38.00
2023-05-16T01:09:53.538Z,37.37
2023-05-16T01:11:00.651Z,35.70
2023-05-16T01:12:16.199Z,35.23
2023-05-16T01:13:24.447Z,35.50
2023-05-16T01:14:48.953Z,36.23
2023-05-16T01:15:56.009Z,36.20
2023-05-16T01:17:07.188Z,36.47
2023-05-16T01:18:13.155Z,36.90
2023-05-16T01:19:37.530Z,36.03
2023-05-16T01:20:57.300Z,34.50
2023-05-16T01:22:17.217Z,36.30
2023-05-16T01:23:33.427Z,37.43
2023-05-16T01:24:40.459Z,36.53
2023-05-16T01:25:47.758Z,35.97
2023-05-16T01:26:49.767Z,35.80
2023-05-16T01:27:52.224Z,35.33
2023-05-16T01:28:54.548Z,37.83
2023-05-16T01:29:56.196Z,36.53
2023-05-16T01:30:57.496Z,37.93
2023-05-16T01:32:01.516Z,34.70
2023-05-16T01:33:03.014Z,36.67
2023-05-16T01:34:04.546Z,37.27
2023-05-16T01:35:09.773Z,34.97
2023-05-16T01:36:16.944Z,36.47
2023-05-16T01:37:21.252Z,36.33
2023-05-16T01:38:26.640Z,35.93
2023-05-16T01:39:43.522Z,36.30
2023-05-16T01:40:53.229Z,35.87
2023-05-16T01:42:04.535Z,35.03
2023-05-16T01:43:08.766Z,35.47
2023-05-16T01:44:24.817Z,36.07
2023-05-16T01:45:28.853Z,32.83
2023-05-16T01:46:31.694Z,34.60
2023-05-16T01:47:37.320Z,35.47
2023-05-16T01:48:50.942Z,35.63
2023-05-16T01:50:13.607Z,34.80
2023-05-16T01:51:14.963Z,34.37
2023-05-16T01:52:19.991Z,33.83
2023-05-16T01:53:29.375Z,34.27
2023-05-16T01:54:31.529Z,34.60
2023-05-16T01:55:48.872Z,35.00
2023-05-16T01:56:53.385Z,34.13
2023-05-16T01:57:55.646Z,33.83
2023-05-16T01:58:57.972Z,34.70
2023-05-16T01:59:59.298Z,34.07
2023-05-16T02:01:04.582Z,32.80
2023-05-16T02:02:06.152Z,34.83
2023-05-16T02:03:07.918Z,34.67
2023-05-16T02:04:09.548Z,35.20
2023-05-16T02:05:11.067Z,35.53
2023-05-16T02:06:12.405Z,34.17
2023-05-16T02:07:16.739Z,33.03
2023-05-16T02:08:20.239Z,33.17
2023-05-16T02:09:25.986Z,33.93
2023-05-16T02:10:27.461Z,34.27
2023-05-16T02:11:28.767Z,34.13
2023-05-16T02:12:30.248Z,34.33
2023-05-16T02:13:31.872Z,34.70
2023-05-16T02:14:37.547Z,32.30
2023-05-16T02:15:38.979Z,33.93
2023-05-16T02:16:40.399Z,33.17
2023-05-16T02:17:41.845Z,34.50
2023-05-16T02:18:45.119Z,34.53
2023-05-16T02:19:46.617Z,32.80
2023-05-16T02:20:47.934Z,33.67
2023-05-16T02:21:51.175Z,33.03
2023-05-16T02:22:52.606Z,33.23
2023-05-16T02:23:54.053Z,33.30
2023-05-16T02:24:56.337Z,32.20
2023-05-16T02:25:57.656Z,32.27
2023-05-16T02:26:59.003Z,33.60
2023-05-16T02:28:00.468Z,32.43
2023-05-16T02:29:02.110Z,32.37
2023-05-16T02:30:05.449Z,32.97
2023-05-16T02:31:06.853Z,30.97
2023-05-16T02:32:08.307Z,31.03
2023-05-16T02:33:10.507Z,30.23
2023-05-16T02:34:11.931Z,30.33
2023-05-16T02:35:13.388Z,31.53
2023-05-16T02:36:14.902Z,31.77
2023-05-16T02:37:17.251Z,31.73
2023-05-16T02:38:20.945Z,31.67
2023-05-16T02:39:23.014Z,30.33
2023-05-16T02:40:25.987Z,29.37
2023-05-16T02:41:27.849Z,29.33
2023-05-16T02:42:29.336Z,31.20
2023-05-16T02:43:30.730Z,29.23
2023-05-16T02:44:32.054Z,30.40
2023-05-16T02:45:33.503Z,28.87
2023-05-16T02:46:35.363Z,29.03
2023-05-16T02:47:38.674Z,28.03
2023-05-16T02:48:40.429Z,28.27
2023-05-16T02:49:41.729Z,27.87
2023-05-16T02:50:43.077Z,28.20
2023-05-16T02:51:45.108Z,27.87
2023-05-16T02:52:47.222Z,27.80
2023-05-16T02:53:48.793Z,25.57
2023-05-16T02:55:04.779Z,25.97
2023-05-16T02:56:11.826Z,25.07
2023-05-16T02:57:14.981Z,23.90
2023-05-16T02:58:16.384Z,25.17
2023-05-16T02:59:17.708Z,23.53
2023-05-16T03:00:19.731Z,23.77
2023-05-16T03:01:21.728Z,23.43
2023-05-16T03:02:23.207Z,22.77
2023-05-16T03:03:24.743Z,22.63
2023-05-16T03:04:26.242Z,22.13
2023-05-16T03:05:29.008Z,22.77
2023-05-16T03:06:30.510Z,23.47
2023-05-16T03:07:34.156Z,21.60
2023-05-16T03:08:35.988Z,21.90
2023-05-16T03:09:37.440Z,23.23
2023-05-16T03:10:38.728Z,22.23
2023-05-16T03:11:41.328Z,21.93
2023-05-16T03:12:42.719Z,21.83
2023-05-16T03:13:44.008Z,21.53
2023-05-16T03:14:45.412Z,22.00
2023-05-16T03:15:46.877Z,21.37
2023-05-16T03:16:48.372Z,22.30
2023-05-16T03:17:49.771Z,21.43
2023-05-16T03:18:51.216Z,21.60
2023-05-16T03:19:52.684Z,21.00
2023-05-16T03:20:54.045Z,21.33
2023-05-16T03:21:58.291Z,21.70
2023-05-16T03:22:59.571Z,21.50
2023-05-16T03:24:02.283Z,21.40
2023-05-16T03:25:04.799Z,21.83
2023-05-16T03:26:06.231Z,20.90
2023-05-16T03:27:08.048Z,20.00
2023-05-16T03:28:09.573Z,21.47
2023-05-16T03:29:11.023Z,21.63
2023-05-16T03:30:13.020Z,21.83
2023-05-16T03:31:14.392Z,21.73
2023-05-16T03:32:16.058Z,20.63
2023-05-16T03:33:17.376Z,21.43
2023-05-16T03:34:18.788Z,22.00
2023-05-16T03:35:20.290Z,20.87
2023-05-16T03:36:22.570Z,20.67
2023-05-16T03:37:23.872Z,22.33
2023-05-16T03:38:25.354Z,20.77
2023-05-16T03:39:26.679Z,21.60
2023-05-16T03:40:28.544Z,20.80
2023-05-16T03:41:29.844Z,21.23
2023-05-16T03:42:32.186Z,21.27
2023-05-16T03:43:33.643Z,20.07
2023-05-16T03:44:34.928Z,20.20
2023-05-16T03:45:36.280Z,20.50
2023-05-16T03:46:37.595Z,20.07
2023-05-16T03:47:38.949Z,20.27
2023-05-16T03:48:40.350Z,19.97
2023-05-16T03:49:41.691Z,20.50
2023-05-16T03:50:43.016Z,20.17
2023-05-16T03:51:44.302Z,20.40
2023-05-16T03:52:45.828Z,20.33
2023-05-16T03:53:47.129Z,20.33
2023-05-16T03:54:48.425Z,20.07
2023-05-16T03:55:49.701Z,19.63
2023-05-16T03:56:50.976Z,20.57
2023-05-16T03:57:53.071Z,20.03
2023-05-16T03:58:54.420Z,20.20
2023-05-16T03:59:55.821Z,20.87
2023-05-16T04:00:57.406Z,19.97
2023-05-16T04:01:58.993Z,20.00
2023-05-16T04:03:00.357Z,21.23
2023-05-16T04:04:01.693Z,19.90
2023-05-16T04:05:03.522Z,19.60
2023-05-16T04:06:05.063Z,21.13
2023-05-16T04:07:06.659Z,20.47
2023-05-16T04:08:08.042Z,21.50
2023-05-16T04:09:09.612Z,20.10
2023-05-16T04:10:11.184Z,20.43
2023-05-16T04:11:12.490Z,20.00
2023-05-16T04:12:13.835Z,21.57
2023-05-16T04:13:15.384Z,19.90
2023-05-16T04:14:16.988Z,20.37
2023-05-16T04:15:18.325Z,19.37
2023-05-16T04:16:19.770Z,21.47
2023-05-16T04:17:21.175Z,20.23
2023-05-16T04:18:22.464Z,19.93
2023-05-16T04:19:24.007Z,19.83
2023-05-16T04:20:25.456Z,19.57
2023-05-16T04:21:26.914Z,19.93
2023-05-16T04:22:28.241Z,19.13
2023-05-16T04:23:29.530Z,20.00
2023-05-16T04:24:30.820Z,19.83
2023-05-16T04:25:32.702Z,19.13
2023-05-16T04:26:34.249Z,19.60
2023-05-16T04:27:35.581Z,18.80
2023-05-16T04:28:37.027Z,19.70
2023-05-16T04:29:38.331Z,19.30
2023-05-16T04:30:39.615Z,19.83
2023-05-16T04:31:41.001Z,19.20
2023-05-16T04:32:42.471Z,19.93
2023-05-16T04:33:43.844Z,18.80
2023-05-16T04:34:46.705Z,19.30
2023-05-16T04:35:48.574Z,19.27
2023-05-16T04:36:50.147Z,19.00
2023-05-16T04:37:51.517Z,19.73
2023-05-16T04:38:52.856Z,20.40
2023-05-16T04:39:54.737Z,20.07
2023-05-16T04:40:56.480Z,19.63
2023-05-16T04:42:01.341Z,19.87
2023-05-16T04:43:02.609Z,19.57
2023-05-16T04:44:04.462Z,21.43
2023-05-16T04:45:06.688Z,19.53
2023-05-16T04:46:08.119Z,19.70
2023-05-16T04:47:09.683Z,19.00
2023-05-16T04:48:12.186Z,19.60
2023-05-16T04:49:14.506Z,19.33
2023-05-16T04:50:20.973Z,18.97
2023-05-16T04:51:22.458Z,18.53
2023-05-16T04:52:23.828Z,20.07
2023-05-16T04:53:25.220Z,19.63
2023-05-16T04:54:26.920Z,18.47
2023-05-16T04:55:28.552Z,19.50
2023-05-16T04:56:30.299Z,18.97
2023-05-16T04:57:31.874Z,19.60
2023-05-16T04:58:33.200Z,19.87
2023-05-16T04:59:34.459Z,18.70
2023-05-16T05:00:35.835Z,19.43
2023-05-16T05:01:37.576Z,20.07
2023-05-16T05:02:42.082Z,18.93
2023-05-16T05:03:44.328Z,19.37
2023-05-16T05:04:47.402Z,19.60
2023-05-16T05:05:52.140Z,18.47
2023-05-16T05:06:53.460Z,18.87
2023-05-16T05:07:54.796Z,19.37
2023-05-16T05:08:56.104Z,18.63
2023-05-16T05:09:57.436Z,20.13
2023-05-16T05:10:58.734Z,19.90
2023-05-16T05:12:00.154Z,19.10
2023-05-16T05:13:01.548Z,18.63
2023-05-16T05:14:03.624Z,19.87
2023-05-16T05:15:06.193Z,18.47
2023-05-16T05:16:07.878Z,18.33
2023-05-16T05:17:09.195Z,18.80
2023-05-16T05:18:10.876Z,18.33
2023-05-16T05:19:12.475Z,18.33
2023-05-16T05:20:13.876Z,18.50
2023-05-16T05:21:15.159Z,18.43
2023-05-16T05:22:16.735Z,18.30
2023-05-16T05:23:18.217Z,17.70
2023-05-16T05:24:19.752Z,16.87
2023-05-16T05:25:21.125Z,16.97
2023-05-16T05:26:22.641Z,17.07
2023-05-16T05:27:25.345Z,17.57
2023-05-16T05:28:26.732Z,17.00
2023-05-16T05:29:28.178Z,15.93
2023-05-16T05:30:29.713Z,15.47
2023-05-16T05:31:31.306Z,16.03
2023-05-16T05:32:32.770Z,15.27
2023-05-16T05:33:34.212Z,15.97
2023-05-16T05:34:35.810Z,15.43
2023-05-16T05:35:37.711Z,14.90
2023-05-16T05:36:39.381Z,15.70
2023-05-16T05:37:40.972Z,16.10
2023-05-16T05:38:42.288Z,14.47
2023-05-16T05:39:43.800Z,15.10
2023-05-16T05:40:45.129Z,14.53
2023-05-16T05:41:46.657Z,13.43
2023-05-16T05:42:48.443Z,13.67
2023-05-16T05:43:49.882Z,14.07
2023-05-16T05:44:51.512Z,13.43
2023-05-16T05:45:53.935Z,15.90
2023-05-16T05:46:57.319Z,13.70
2023-05-16T05:47:58.784Z,13.10
2023-05-16T05:49:00.368Z,13.13
2023-05-16T05:50:02.621Z,13.20
2023-05-16T05:51:04.107Z,13.60
2023-05-16T05:52:05.871Z,12.97
2023-05-16T05:53:07.240Z,12.30
2023-05-16T05:54:08.800Z,13.53
2023-05-16T05:55:10.124Z,12.10
2023-05-16T05:56:11.658Z,11.33
2023-05-16T05:57:13.145Z,11.60
2023-05-16T05:58:14.489Z,11.13
2023-05-16T05:59:16.045Z,10.60
2023-05-16T06:00:18.734Z,11.30
2023-05-16T06:01:21.232Z,10.83
2023-05-16T06:02:22.620Z,11.53
2023-05-16T06:03:24.293Z,9.80
2023-05-16T06:04:25.909Z,10.30
2023-05-16T06:05:27.835Z,9.53
2023-05-16T06:06:29.473Z,9.53
2023-05-16T06:07:34.136Z,10.10
2023-05-16T06:08:35.733Z,9.93
2023-05-16T06:09:37.046Z,8.30
2023-05-16T06:10:38.418Z,9.03
2023-05-16T06:11:39.823Z,8.47
2023-05-16T06:12:41.186Z,8.47
2023-05-16T06:13:42.556Z,8.53
2023-05-16T06:14:44.029Z,8.43
2023-05-16T06:15:49.757Z,8.57
2023-05-16T06:16:53.551Z,8.57
2023-05-16T06:17:54.896Z,8.47
2023-05-16T06:18:58.607Z,8.57
2023-05-16T06:20:00.158Z,7.50
2023-05-16T06:21:01.692Z,7.20
2023-05-16T06:22:02.993Z,7.03
2023-05-16T06:23:04.764Z,7.30
2023-05-16T06:24:06.272Z,6.90
2023-05-16T06:25:07.785Z,6.83
2023-05-16T06:26:09.157Z,6.60
2023-05-16T06:27:10.576Z,6.30
2023-05-16T06:28:12.270Z,6.20
2023-05-16T06:29:13.686Z,6.23
2023-05-16T06:30:15.971Z,5.97
2023-05-16T06:31:17.305Z,5.27
2023-05-16T06:32:18.605Z,4.97
2023-05-16T06:33:20.152Z,4.93
2023-05-16T06:34:27.534Z,4.57
2023-05-16T06:35:29.099Z,4.90
2023-05-16T06:36:31.019Z,4.47
2023-05-16T06:37:32.326Z,4.80
2023-05-16T06:38:33.948Z,4.17
2023-05-16T06:39:35.413Z,4.30
2023-05-16T06:40:37.540Z,4.17
2023-05-16T06:41:38.844Z,3.70
2023-05-16T06:42:40.552Z,4.23
2023-05-16T06:43:41.960Z,3.80
2023-05-16T06:44:43.335Z,3.30
2023-05-16T06:45:44.808Z,4.13
2023-05-16T06:46:46.235Z,3.47
2023-05-16T06:47:47.653Z,3.17
2023-05-16T06:48:49.051Z,3.40
2023-05-16T06:49:50.922Z,2.70
2023-05-16T06:50:52.498Z,2.60
2023-05-16T06:51:53.928Z,2.50
2023-05-16T06:52:55.307Z,2.43
2023-05-16T06:53:56.946Z,2.53
2023-05-16T06:54:58.304Z,2.67
2023-05-16T06:55:59.692Z,2.50
2023-05-16T06:57:01.055Z,2.60
2023-05-16T06:58:02.425Z,2.37
2023-05-16T06:59:03.760Z,2.47
2023-05-16T07:00:05.606Z,2.40
2023-05-16T07:01:06.924Z,2.23
2023-05-16T07:02:08.309Z,2.50
2023-05-16T07:03:09.796Z,2.33
2023-05-16T07:04:11.287Z,2.47
2023-05-16T07:05:12.831Z,2.23
2023-05-16T07:06:14.187Z,2.50
2023-05-16T07:07:16.093Z,2.67
2023-05-16T07:08:17.405Z,2.33
2023-05-16T07:09:18.997Z,2.40
2023-05-16T07:10:21.083Z,2.23
2023-05-16T07:11:22.513Z,2.60
2023-05-16T07:12:23.898Z,2.23
2023-05-16T07:13:25.541Z,2.50
2023-05-16T07:14:27.026Z,2.37
2023-05-16T07:15:28.623Z,2.60
2023-05-16T07:16:30.421Z,2.00
2023-05-16T07:17:31.768Z,2.50
2023-05-16T07:18:33.254Z,2.20
2023-05-16T07:19:34.668Z,2.20
2023-05-16T07:20:36.423Z,2.00
2023-05-16T07:21:37.777Z,2.10
2023-05-16T07:22:43.382Z,2.50
2023-05-16T07:24:11.440Z,2.30
2023-05-16T07:25:12.754Z,2.43
2023-05-16T07:26:14.538Z,1.90
2023-05-16T07:27:20.970Z,2.00
2023-05-16T07:28:23.673Z,1.87
2023-05-16T07:29:25.190Z,2.00
2023-05-16T07:30:26.657Z,2.17
2023-05-16T07:31:28.120Z,1.70
2023-05-16T07:32:29.504Z,1.93
2023-05-16T07:33:31.008Z,1.57
2023-05-16T07:34:32.389Z,1.90
2023-05-16T07:35:33.729Z,1.80
2023-05-16T07:36:35.142Z,2.17
2023-05-16T07:37:36.513Z,2.00
2023-05-16T07:38:37.987Z,2.00
2023-05-16T07:39:40.005Z,1.70
2023-05-16T07:40:41.460Z,1.90
2023-05-16T07:41:44.856Z,1.77
2023-05-16T07:42:46.213Z,1.73
2023-05-16T07:43:47.599Z,2.07
2023-05-16T07:44:49.004Z,2.10
2023-05-16T07:45:50.741Z,1.53
2023-05-16T07:46:52.178Z,1.57
2023-05-16T07:47:53.658Z,1.53
2023-05-16T07:48:55.172Z,1.60
2023-05-16T07:49:56.622Z,1.53
2023-05-16T07:50:57.986Z,1.53
2023-05-16T07:51:59.849Z,1.73
2023-05-16T07:53:01.361Z,2.13
2023-05-16T07:54:02.975Z,1.80
2023-05-16T07:55:04.511Z,1.60
2023-05-16T07:56:06.755Z,1.60
2023-05-16T07:57:08.099Z,1.73
2023-05-16T07:58:09.513Z,1.60
2023-05-16T07:59:11.581Z,1.63
2023-05-16T08:00:13.381Z,1.70
2023-05-16T08:01:14.805Z,1.73
2023-05-16T08:02:17.101Z,1.60
2023-05-16T08:03:18.723Z,1.70
2023-05-16T08:04:20.322Z,1.57
2023-05-16T08:05:21.842Z,2.07
2023-05-16T08:06:23.231Z,1.60
2023-05-16T08:07:24.587Z,1.23
2023-05-16T08:08:28.672Z,1.27
2023-05-16T08:09:30.212Z,1.30
2023-05-16T08:10:31.624Z,1.80
2023-05-16T08:11:33.012Z,1.70
2023-05-16T08:12:34.557Z,1.80
2023-05-16T08:13:36.023Z,1.50
2023-05-16T08:14:37.428Z,2.00
2023-05-16T08:15:38.916Z,2.53
2023-05-16T08:16:40.423Z,1.63
2023-05-16T08:17:42.294Z,1.60
2023-05-16T08:18:43.713Z,1.50
2023-05-16T08:19:45.159Z,1.53
2023-05-16T08:20:46.645Z,1.60
2023-05-16T08:21:48.277Z,1.43
2023-05-16T08:22:49.765Z,1.60
2023-05-16T08:23:51.231Z,1.30
2023-05-16T08:24:52.914Z,1.27
2023-05-16T08:25:54.781Z,1.50
2023-05-16T08:26:56.135Z,1.17
2023-05-16T08:27:57.958Z,1.37
2023-05-16T08:28:59.394Z,1.20
2023-05-16T08:30:00.857Z,1.30
2023-05-16T08:31:02.252Z,1.30
2023-05-16T08:32:04.127Z,1.13
2023-05-16T08:33:06.406Z,1.00
2023-05-16T08:34:09.345Z,1.00
2023-05-16T08:35:11.327Z,0.90
2023-05-16T08:36:12.721Z,0.90
2023-05-16T08:37:15.967Z,1.00
2023-05-16T08:38:18.923Z,1.00
2023-05-16T08:39:20.385Z,1.17
2023-05-16T08:40:22.366Z,1.10
2023-05-16T08:41:23.856Z,0.90
2023-05-16T08:42:25.831Z,1.00
2023-05-16T08:43:27.568Z,1.07
2023-05-16T08:44:28.929Z,0.90
2023-05-16T08:45:31.211Z,0.90
2023-05-16T08:46:33.277Z,1.00
2023-05-16T08:47:36.580Z,0.90
2023-05-16T08:48:38.628Z,1.00
2023-05-16T08:49:41.424Z,1.00
2023-05-16T08:50:43.981Z,1.10
2023-05-16T08:51:46.447Z,1.00
2023-05-16T08:52:51.364Z,1.17
2023-05-16T08:53:54.535Z,1.17
2023-05-16T08:55:09.202Z,1.30
2023-05-16T08:56:13.319Z,1.10
2023-05-16T08:57:15.469Z,1.20
2023-05-16T08:58:17.601Z,1.23
2023-05-16T08:59:19.301Z,1.10
2023-05-16T09:00:21.963Z,1.10
2023-05-16T09:01:23.747Z,1.17
2023-05-16T09:02:25.442Z,1.00
2023-05-16T09:03:28.883Z,1.10
2023-05-16T09:04:30.495Z,1.13
2023-05-16T09:05:32.161Z,1.20
2023-05-16T09:06:33.548Z,1.00
2023-05-16T09:07:34.977Z,1.10
2023-05-16T09:08:36.370Z,1.20
2023-05-16T09:09:37.702Z,1.70
2023-05-16T09:10:39.071Z,1.80
2023-05-16T09:11:40.618Z,2.00
2023-05-16T09:12:42.306Z,1.20
2023-05-16T09:13:43.757Z,1.53
2023-05-16T09:14:45.285Z,1.50
2023-05-16T09:15:46.680Z,1.33
2023-05-16T09:17:03.392Z,1.20
2023-05-16T09:18:05.302Z,1.07
2023-05-16T09:19:06.926Z,1.00
2023-05-16T09:20:09.277Z,1.00
2023-05-16T09:21:11.658Z,1.10
2023-05-16T09:22:13.813Z,1.10
2023-05-16T09:23:15.688Z,1.10
2023-05-16T09:24:17.093Z,0.90
2023-05-16T09:25:29.642Z,1.10
2023-05-16T09:26:33.204Z,1.10
2023-05-16T09:27:34.793Z,0.90
2023-05-16T09:28:39.741Z,1.30
2023-05-16T09:29:41.916Z,1.10
2023-05-16T09:30:46.001Z,1.00
2023-05-16T09:31:49.399Z,1.10
2023-05-16T09:32:52.017Z,0.90
2023-05-16T09:33:53.841Z,1.03
2023-05-16T09:34:57.775Z,1.07
2023-05-16T09:35:59.658Z,1.27
2023-05-16T09:37:01.133Z,1.00
2023-05-16T09:38:02.596Z,0.70
2023-05-16T09:39:06.635Z,0.80
2023-05-16T09:40:10.196Z,0.60
2023-05-16T09:41:11.961Z,0.43
2023-05-16T09:42:14.040Z,0.80
2023-05-16T09:43:16.784Z,0.70
2023-05-16T09:44:18.774Z,0.67
2023-05-16T09:45:20.179Z,0.70
2023-05-16T09:46:25.632Z,0.60
2023-05-16T09:47:27.865Z,0.77
2023-05-16T09:48:29.350Z,0.50
2023-05-16T09:49:30.905Z,0.40
2023-05-16T09:50:36.603Z,0.43
2023-05-16T09:51:39.174Z,0.50
2023-05-16T09:52:40.712Z,0.50
2023-05-16T09:53:42.181Z,0.40
2023-05-16T09:54:43.692Z,0.40
2023-05-16T09:55:45.097Z,0.40
2023-05-16T09:56:50.652Z,0.37
2023-05-16T09:57:52.230Z,0.23
2023-05-16T09:58:53.745Z,0.50
2023-05-16T09:59:55.246Z,0.40
2023-05-16T10:00:57.534Z,0.50
2023-05-16T10:02:00.464Z,0.40
2023-05-16T10:03:04.825Z,0.30
2023-05-16T10:04:10.524Z,0.40
2023-05-16T10:05:12.177Z,0.60
2023-05-16T10:06:13.878Z,0.60
2023-05-16T10:07:16.307Z,0.70
2023-05-16T10:08:18.058Z,0.50
2023-05-16T10:09:19.695Z,0.60
2023-05-16T10:10:21.154Z,0.40
2023-05-16T10:11:22.603Z,0.60
2023-05-16T10:12:27.151Z,0.70
2023-05-16T10:13:29.528Z,0.50
2023-05-16T10:14:34.307Z,0.80
2023-05-16T10:15:36.767Z,0.73
2023-05-16T10:16:42.064Z,0.70
2023-05-16T10:17:45.620Z,0.67
2023-05-16T10:18:47.046Z,0.80
2023-05-16T10:19:48.524Z,0.80
2023-05-16T10:20:53.154Z,0.60
2023-05-16T10:21:59.520Z,0.47
2023-05-16T10:23:02.541Z,0.50
2023-05-16T10:24:05.788Z,0.50
2023-05-16T10:25:07.301Z,0.47
2023-05-16T10:26:08.970Z,0.50
2023-05-16T10:27:10.572Z,0.70
2023-05-16T10:28:12.760Z,1.30
2023-05-16T10:29:14.356Z,1.00
2023-05-16T10:30:17.224Z,0.70
2023-05-16T10:31:18.719Z,0.60
2023-05-16T10:32:25.502Z,0.60
2023-05-16T10:33:27.116Z,0.60
2023-05-16T10:34:29.006Z,0.70
2023-05-16T10:35:31.393Z,0.70
2023-05-16T10:36:33.054Z,0.70
2023-05-16T10:37:34.765Z,0.70
2023-05-16T10:38:37.730Z,0.77
2023-05-16T10:39:39.728Z,1.00
2023-05-16T10:40:41.575Z,0.70
2023-05-16T10:41:43.331Z,0.60
2023-05-16T10:42:55.942Z,0.60
2023-05-16T10:44:05.692Z,0.50
2023-05-16T10:45:25.452Z,0.70
2023-05-16T10:46:28.233Z,0.80
2023-05-16T10:47:29.785Z,0.80
2023-05-16T10:48:32.806Z,0.80
2023-05-16T10:49:34.609Z,0.77
2023-05-16T10:50:45.922Z,0.70
2023-05-16T10:51:50.840Z,0.60
2023-05-16T10:52:52.736Z,0.50
2023-05-16T10:53:54.623Z,0.83
2023-05-16T10:54:57.179Z,0.67
2023-05-16T10:55:58.677Z,0.60
2023-05-16T10:57:04.203Z,0.87
2023-05-16T10:58:05.724Z,0.80
2023-05-16T10:59:26.510Z,0.50
2023-05-16T11:00:30.512Z,0.70
2023-05-16T11:01:33.062Z,0.90
2023-05-16T11:02:40.809Z,0.60
2023-05-16T11:04:00.890Z,0.87
2023-05-16T11:05:02.789Z,1.07
2023-05-16T11:06:05.861Z,0.80
2023-05-16T11:07:10.540Z,1.30
2023-05-16T11:08:11.907Z,0.87
2023-05-16T11:09:16.279Z,1.10
2023-05-16T11:10:17.746Z,0.80
2023-05-16T11:11:37.974Z,0.60
2023-05-16T11:12:44.436Z,0.70
2023-05-16T11:13:55.464Z,1.30
2023-05-16T11:14:58.102Z,1.30
2023-05-16T11:16:18.123Z,1.00
2023-05-16T11:17:26.727Z,1.07
2023-05-16T11:18:31.928Z,0.73
2023-05-16T11:19:40.880Z,0.70
2023-05-16T11:20:44.784Z,0.70
2023-05-16T11:22:09.685Z,0.83
2023-05-16T11:23:17.188Z,0.90
2023-05-16T11:24:28.165Z,0.90
2023-05-16T11:25:41.079Z,0.80
2023-05-16T11:26:43.104Z,0.50
2023-05-16T11:27:48.040Z,0.70
2023-05-16T11:28:50.044Z,0.77
2023-05-16T11:29:52.365Z,1.03
2023-05-16T11:30:56.137Z,0.80
2023-05-16T11:31:58.812Z,0.80
2023-05-16T11:33:00.380Z,0.90
2023-05-16T11:34:02.023Z,1.00
2023-05-16T11:35:04.318Z,1.10
2023-05-16T11:37:13.617Z,0.70
2023-05-16T11:38:17.606Z,0.80
2023-05-16T11:39:19.603Z,0.90
2023-05-16T11:40:21.099Z,1.10
2023-05-16T11:41:22.767Z,0.90
2023-05-16T11:42:24.263Z,0.90
2023-05-16T11:43:26.102Z,1.20
2023-05-16T11:44:27.763Z,1.00
2023-05-16T11:45:29.392Z,1.10
2023-05-16T11:46:30.989Z,1.53
2023-05-16T11:47:32.428Z,0.90
2023-05-16T11:48:36.650Z,1.10
2023-05-16T11:49:38.365Z,1.30
2023-05-16T11:50:42.206Z,1.10
2023-05-16T11:51:43.624Z,1.07
2023-05-16T11:52:46.628Z,1.10
2023-05-16T11:53:49.785Z,1.00
2023-05-16T11:54:51.690Z,1.10
2023-05-16T11:55:55.694Z,0.90
2023-05-16T11:56:57.359Z,1.00
2023-05-16T11:57:59.075Z,0.97
2023-05-16T11:59:00.770Z,1.13
2023-05-16T12:00:07.916Z,1.00
2023-05-16T12:01:10.252Z,1.10
2023-05-16T12:02:11.701Z,1.00
2023-05-16T12:03:13.471Z,0.80
2023-05-16T12:04:15.619Z,0.87
2023-05-16T12:05:18.067Z,1.00
2023-05-16T12:06:19.394Z,1.63
2023-05-16T12:07:23.359Z,1.80
2023-05-16T12:08:25.216Z,1.30
2023-05-16T12:09:26.697Z,2.03
2023-05-16T12:10:28.253Z,1.77
2023-05-16T12:11:30.278Z,1.20
2023-05-16T12:12:31.624Z,1.63
2023-05-16T12:13:33.077Z,1.43
2023-05-16T12:14:34.586Z,1.80
2023-05-16T12:15:35.976Z,1.20
2023-05-16T12:16:37.965Z,1.37
2023-05-16T12:17:40.080Z,1.40
2023-05-16T12:18:43.512Z,1.73
2023-05-16T12:19:46.418Z,1.40
2023-05-16T12:20:47.842Z,1.60
2023-05-16T12:21:52.467Z,1.40
2023-05-16T12:22:57.398Z,1.20
2023-05-16T12:23:58.858Z,1.43
2023-05-16T12:25:15.346Z,1.30
2023-05-16T12:26:23.198Z,1.60
2023-05-16T12:27:25.331Z,1.30
2023-05-16T12:28:30.816Z,1.30
2023-05-16T12:29:32.161Z,1.37
2023-05-16T12:30:33.782Z,1.30
2023-05-16T12:31:41.639Z,1.53
2023-05-16T12:32:43.373Z,1.63
2023-05-16T12:33:45.399Z,1.63
2023-05-16T12:34:51.840Z,1.17
2023-05-16T12:35:54.436Z,1.57
2023-05-16T12:36:55.876Z,1.50
2023-05-16T12:37:57.319Z,1.50
2023-05-16T12:39:05.192Z,1.17
2023-05-16T12:40:06.980Z,1.80
2023-05-16T12:41:08.439Z,1.70
2023-05-16T12:42:11.575Z,1.63
2023-05-16T12:43:16.629Z,1.83
2023-05-16T12:44:19.552Z,1.50
2023-05-16T12:45:22.070Z,1.73
2023-05-16T12:46:25.402Z,1.90
2023-05-16T12:47:35.135Z,1.70
2023-05-16T12:48:36.982Z,1.40
2023-05-16T12:49:47.848Z,1.40
2023-05-16T12:50:49.368Z,1.33
2023-05-16T12:51:52.055Z,1.50
2023-05-16T12:52:54.419Z,1.70
2023-05-16T12:54:06.052Z,1.57
2023-05-16T12:55:14.470Z,1.60
2023-05-16T12:56:16.208Z,1.60
2023-05-16T12:57:17.685Z,1.67
2023-05-16T12:58:19.776Z,1.60
2023-05-16T12:59:21.225Z,1.67
2023-05-16T13:00:23.391Z,1.60
2023-05-16T13:01:24.846Z,2.30
2023-05-16T13:02:26.386Z,1.63
2023-05-16T13:03:27.958Z,1.70
2023-05-16T13:04:29.935Z,1.80
2023-05-16T13:05:31.482Z,1.70
2023-05-16T13:06:48.890Z,1.53
2023-05-16T13:07:54.460Z,1.90
2023-05-16T13:08:56.239Z,1.80
2023-05-16T13:09:57.665Z,1.70
2023-05-16T13:10:59.092Z,1.77
2023-05-16T13:12:00.878Z,1.40
2023-05-16T13:13:02.569Z,1.80
2023-05-16T13:14:04.204Z,1.70
2023-05-16T13:15:07.445Z,1.90
2023-05-16T13:16:10.247Z,1.87
2023-05-16T13:17:11.901Z,1.60
2023-05-16T13:18:13.676Z,1.90
2023-05-16T13:19:15.174Z,1.50
2023-05-16T13:20:17.318Z,1.67
2023-05-16T13:21:18.751Z,1.97
2023-05-16T13:22:20.133Z,1.80
2023-05-16T13:23:21.692Z,1.40
2023-05-16T13:24:23.027Z,2.07
2023-05-16T13:25:24.478Z,1.33
2023-05-16T13:26:27.374Z,1.70
2023-05-16T13:27:28.713Z,1.73
2023-05-16T13:28:30.030Z,1.80
2023-05-16T13:29:31.405Z,1.83
2023-05-16T13:30:32.891Z,1.80
2023-05-16T13:31:34.303Z,1.40
2023-05-16T13:32:35.997Z,1.87
2023-05-16T13:33:37.708Z,2.00
2023-05-16T13:34:39.108Z,2.20
2023-05-16T13:35:40.493Z,2.17
2023-05-16T13:37:51.100Z,2.20
2023-05-16T13:38:52.460Z,2.20
2023-05-16T13:39:54.831Z,1.90
2023-05-16T13:40:56.319Z,2.07
2023-05-16T13:41:58.983Z,1.90
2023-05-16T13:43:01.599Z,1.27
2023-05-16T13:44:03.199Z,1.90
2023-05-16T13:45:05.013Z,1.70
2023-05-16T13:46:06.442Z,1.83